createdAt,value
2023-03-20T00:01:17.864Z,27.65
2023-03-20T00:03:45.059Z,31.42
2023-03-20T00:06:23.243Z,28.33
2023-03-20T00:08:52.658Z,26.45
2023-03-20T00:11:29.512Z,26.23
2023-03-20T00:14:02.395Z,23.30
2023-03-20T00:16:41.502Z,23.27
2023-03-20T00:19:18.206Z,24.20
2023-03-20T00:21:47.565Z,23.80
2023-03-20T00:24:15.510Z,21.73
2023-03-20T00:26:44.130Z,23.15
2023-03-20T00:29:36.048Z,21.45
2023-03-20T00:32:04.184Z,25.65
2023-03-20T00:34:31.295Z,22.88
2023-03-20T00:36:58.277Z,21.73
2023-03-20T00:39:25.139Z,20.90
2023-03-20T00:42:01.867Z,23.70
2023-03-20T00:44:43.344Z,22.08
2023-03-20T00:47:21.965Z,19.65
2023-03-20T00:49:50.913Z,20.77
2023-03-20T00:52:22.515Z,20.15
2023-03-20T00:54:51.543Z,19.75
2023-03-20T00:57:24.590Z,20.52
2023-03-20T01:00:01.953Z,18.13
2023-03-20T01:02:31.863Z,20.45
2023-03-20T01:05:00.387Z,18.08
2023-03-20T01:07:28.082Z,22.05
2023-03-20T01:09:56.841Z,24.60
2023-03-20T01:12:23.962Z,22.80
2023-03-20T01:14:54.782Z,22.23
2023-03-20T01:17:23.663Z,20.35
2023-03-20T01:19:50.594Z,18.40
2023-03-20T01:22:20.671Z,21.23
2023-03-20T01:24:48.022Z,21.38
2023-03-20T01:27:17.612Z,22.48
2023-03-20T01:29:45.044Z,19.10
2023-03-20T01:32:15.136Z,17.35
2023-03-20T01:34:44.749Z,21.25
2023-03-20T01:37:26.792Z,17.13
2023-03-20T01:39:57.284Z,17.27
2023-03-20T01:42:25.105Z,20.75
2023-03-20T01:44:52.944Z,15.90
2023-03-20T01:47:23.742Z,15.80
2023-03-20T01:50:23.045Z,14.50
2023-03-20T01:52:58.400Z,13.70
2023-03-20T01:55:26.554Z,14.60
2023-03-20T01:58:04.154Z,19.73
2023-03-20T02:00:33.019Z,14.50
2023-03-20T02:03:00.564Z,12.68
2023-03-20T02:05:47.872Z,12.95
2023-03-20T02:08:29.940Z,14.48
2023-03-20T02:11:02.402Z,16.02
2023-03-20T02:13:32.772Z,16.80
2023-03-20T02:15:59.635Z,15.70
2023-03-20T02:18:44.456Z,14.27
2023-03-20T02:21:33.173Z,15.20
2023-03-20T02:24:19.338Z,14.60
2023-03-20T02:27:23.682Z,19.73
2023-03-20T02:30:26.236Z,14.40
2023-03-20T02:33:03.392Z,15.18
2023-03-20T02:35:55.695Z,16.48
2023-03-20T02:38:27.124Z,17.10
2023-03-20T02:41:03.319Z,15.98
2023-03-20T02:43:36.937Z,17.75
2023-03-20T02:46:25.873Z,16.77
2023-03-20T02:48:58.105Z,16.90
2023-03-20T02:51:36.448Z,18.45
2023-03-20T02:54:29.786Z,15.07
2023-03-20T02:57:14.669Z,20.45
2023-03-20T02:59:54.346Z,13.75
2023-03-20T03:02:53.110Z,16.17
2023-03-20T03:05:27.645Z,16.45
2023-03-20T03:07:59.845Z,15.60
2023-03-20T03:10:36.930Z,18.38
2023-03-20T03:13:07.863Z,15.80
2023-03-20T03:15:43.861Z,15.48
2023-03-20T03:18:16.533Z,19.80
2023-03-20T03:20:45.436Z,16.92
2023-03-20T03:23:25.537Z,19.83
2023-03-20T03:25:56.205Z,17.15
2023-03-20T03:28:47.487Z,17.33
2023-03-20T03:31:18.648Z,19.53
2023-03-20T03:33:51.867Z,19.92
2023-03-20T03:36:29.872Z,19.13
2023-03-20T03:39:27.360Z,20.17
2023-03-20T03:42:02.948Z,18.10
2023-03-20T03:44:45.285Z,22.02
2023-03-20T03:47:25.105Z,21.15
2023-03-20T03:50:10.602Z,22.48
2023-03-20T03:52:39.050Z,21.08
2023-03-20T03:55:28.080Z,21.08
2023-03-20T03:58:15.103Z,20.40
2023-03-20T04:00:44.464Z,19.38
2023-03-20T04:03:12.429Z,22.17
2023-03-20T04:05:44.257Z,23.90
2023-03-20T04:08:11.100Z,24.60
2023-03-20T04:10:40.627Z,22.65
2023-03-20T04:13:08.731Z,25.65
2023-03-20T04:15:36.032Z,24.92
2023-03-20T04:18:05.900Z,22.73
2023-03-20T04:20:33.926Z,21.20
2023-03-20T04:23:02.157Z,25.02
2023-03-20T04:25:29.433Z,24.92
2023-03-20T04:27:57.283Z,21.33
2023-03-20T04:30:56.910Z,26.15
2023-03-20T04:33:38.213Z,23.05
2023-03-20T04:36:31.286Z,22.93
2023-03-20T04:38:58.090Z,23.05
2023-03-20T04:41:26.624Z,23.42
2023-03-20T04:43:55.791Z,21.95
2023-03-20T04:46:23.639Z,24.42
2023-03-20T04:48:51.027Z,25.58
2023-03-20T04:51:18.556Z,23.55
2023-03-20T04:53:49.411Z,27.77
2023-03-20T04:56:16.202Z,26.67
2023-03-20T04:58:43.129Z,27.95
2023-03-20T05:01:10.952Z,27.25
2023-03-20T05:03:37.848Z,27.05
2023-03-20T05:06:05.717Z,25.63
2023-03-20T05:08:34.318Z,26.92
2023-03-20T05:11:01.256Z,26.13
2023-03-20T05:13:50.538Z,27.25
2023-03-20T05:16:40.888Z,26.90
2023-03-20T05:19:26.349Z,26.35
2023-03-20T05:22:06.166Z,28.17
2023-03-20T05:25:08.644Z,29.85
2023-03-20T05:27:47.424Z,27.98
2023-03-20T05:30:33.409Z,32.60
2023-03-20T05:33:18.742Z,29.02
2023-03-20T05:36:07.508Z,28.40
2023-03-20T05:39:12.922Z,26.15
2023-03-20T05:41:46.452Z,27.35
2023-03-20T05:44:32.247Z,27.38
2023-03-20T05:47:18.776Z,29.20
2023-03-20T05:49:57.646Z,31.52
2023-03-20T05:52:30.449Z,28.98
2023-03-20T05:55:06.564Z,28.20
2023-03-20T05:57:59.928Z,27.50
2023-03-20T06:00:40.120Z,33.00
2023-03-20T06:03:36.926Z,29.23
2023-03-20T06:06:10.815Z,27.88
2023-03-20T06:08:38.016Z,31.77
2023-03-20T06:11:06.585Z,28.85
2023-03-20T06:13:36.125Z,25.63
2023-03-20T06:16:03.460Z,26.88
2023-03-20T06:18:31.586Z,29.50
2023-03-20T06:20:59.270Z,27.23
2023-03-20T06:23:29.167Z,26.20
2023-03-20T06:25:56.263Z,29.55
2023-03-20T06:28:24.656Z,27.75
2023-03-20T06:30:59.951Z,26.83
2023-03-20T06:33:27.185Z,25.05
2023-03-20T06:35:59.844Z,24.38
2023-03-20T06:38:29.479Z,25.90
2023-03-20T06:40:56.508Z,25.55
2023-03-20T06:43:23.326Z,24.50
2023-03-20T06:45:52.669Z,26.17
2023-03-20T06:48:25.801Z,23.42
2023-03-20T06:50:53.168Z,29.08
2023-03-20T06:53:23.772Z,26.88
2023-03-20T06:56:05.736Z,29.13
2023-03-20T06:58:32.754Z,25.83
2023-03-20T07:00:59.797Z,24.05
2023-03-20T07:03:26.717Z,24.05
2023-03-20T07:05:53.989Z,26.98
2023-03-20T07:08:22.625Z,23.98
2023-03-20T07:10:49.952Z,23.20
2023-03-20T07:13:16.694Z,24.17
2023-03-20T07:15:57.530Z,25.63
2023-03-20T07:18:29.180Z,25.02
2023-03-20T07:21:01.833Z,23.67
2023-03-20T07:23:34.447Z,21.95
2023-03-20T07:26:02.362Z,27.02
2023-03-20T07:28:29.486Z,26.77
2023-03-20T07:31:22.065Z,24.42
2023-03-20T07:33:53.589Z,25.00
2023-03-20T07:36:20.470Z,29.02
2023-03-20T07:38:47.562Z,23.30
2023-03-20T07:41:14.374Z,20.77
2023-03-20T07:43:47.160Z,28.20
2023-03-20T07:46:52.409Z,24.58
2023-03-20T07:49:22.998Z,25.83
2023-03-20T07:51:50.937Z,27.55
2023-03-20T07:54:18.020Z,29.27
2023-03-20T07:56:46.011Z,28.88
2023-03-20T07:59:14.511Z,24.40
2023-03-20T08:01:41.439Z,24.98
2023-03-20T08:04:08.839Z,25.13
2023-03-20T08:06:36.117Z,25.55
2023-03-20T08:09:03.057Z,23.58
2023-03-20T08:11:29.786Z,29.75
2023-03-20T08:13:56.588Z,25.90
2023-03-20T08:16:23.461Z,24.52
2023-03-20T08:18:50.773Z,26.83
2023-03-20T08:21:17.892Z,25.60
2023-03-20T08:23:44.647Z,27.23
2023-03-20T08:26:11.499Z,40.00
2023-03-20T08:28:47.458Z,26.30
2023-03-20T08:31:16.139Z,37.10
2023-03-20T08:33:42.971Z,34.50
2023-03-20T08:36:10.006Z,31.55
2023-03-20T08:38:36.992Z,33.38
2023-03-20T08:41:03.842Z,25.77
2023-03-20T08:43:30.581Z,26.17
2023-03-20T08:45:57.440Z,27.10
2023-03-20T08:48:24.318Z,25.08
2023-03-20T08:50:51.247Z,27.15
2023-03-20T08:53:19.092Z,22.77
2023-03-20T08:55:51.729Z,24.42
2023-03-20T08:58:19.524Z,22.25
2023-03-20T09:00:46.790Z,22.95
2023-03-20T09:03:18.955Z,25.38
2023-03-20T09:05:47.851Z,28.60
2023-03-20T09:08:14.633Z,25.10
2023-03-20T09:10:42.000Z,30.30
2023-03-20T09:13:25.833Z,27.50
2023-03-20T09:15:54.060Z,21.27
2023-03-20T09:18:21.502Z,23.45
2023-03-20T09:20:48.712Z,28.80
2023-03-20T09:23:15.463Z,22.65
2023-03-20T09:25:42.180Z,26.65
2023-03-20T09:28:08.961Z,26.55
2023-03-20T09:30:36.493Z,23.08
2023-03-20T09:33:03.408Z,27.23
2023-03-20T09:35:30.181Z,60.17
2023-03-20T09:37:56.999Z,24.08
2023-03-20T09:40:55.971Z,34.40
2023-03-20T09:43:41.123Z,27.55
2023-03-20T09:46:20.337Z,24.40
2023-03-20T09:48:59.518Z,26.02
2023-03-20T09:51:43.444Z,26.58
2023-03-20T09:54:53.082Z,28.58
2023-03-20T09:57:28.665Z,25.77
2023-03-20T10:00:01.450Z,24.73
2023-03-20T10:02:49.045Z,25.17
2023-03-20T10:05:31.242Z,34.35
2023-03-20T10:08:04.747Z,25.45
2023-03-20T10:10:50.567Z,19.88
2023-03-20T10:13:37.830Z,21.30
2023-03-20T10:16:31.912Z,21.17
2023-03-20T10:19:27.864Z,21.10
2023-03-20T10:22:29.248Z,23.80
2023-03-20T10:25:16.974Z,19.70
2023-03-20T10:28:00.443Z,19.70
2023-03-20T10:33:12.386Z,21.42
2023-03-20T10:35:43.320Z,23.50
2023-03-20T10:38:39.187Z,18.55
2023-03-20T10:41:14.413Z,21.15
2023-03-20T10:43:43.519Z,16.95
2023-03-20T10:46:31.906Z,15.50
2023-03-20T10:49:25.674Z,14.40
2023-03-20T10:51:55.919Z,15.40
2023-03-20T10:54:40.994Z,15.63
2023-03-20T10:57:18.024Z,17.40
2023-03-20T10:59:50.306Z,17.10
2023-03-20T11:02:19.031Z,16.17
2023-03-20T11:04:46.222Z,18.45
2023-03-20T11:07:12.866Z,20.27
2023-03-20T11:09:39.693Z,13.50
2023-03-20T11:12:14.422Z,14.48
2023-03-20T11:14:41.262Z,15.10
2023-03-20T11:17:08.095Z,17.52
2023-03-20T11:19:38.201Z,18.67
2023-03-20T11:22:25.541Z,14.60
2023-03-20T11:25:02.931Z,17.45
2023-03-20T11:27:33.193Z,15.75
2023-03-20T11:30:04.626Z,15.48
2023-03-20T11:32:45.785Z,16.60
2023-03-20T11:35:22.945Z,12.57
2023-03-20T11:37:52.708Z,15.38
2023-03-20T11:40:33.262Z,12.90
2023-03-20T11:43:03.948Z,16.48
2023-03-20T11:45:39.907Z,13.70
2023-03-20T11:48:14.774Z,15.23
2023-03-20T11:50:50.408Z,12.10
2023-03-20T11:53:22.757Z,11.27
2023-03-20T11:56:26.650Z,13.73
2023-03-20T11:58:57.933Z,10.90
2023-03-20T12:01:27.185Z,11.25
2023-03-20T12:04:07.198Z,9.35
2023-03-20T12:06:52.750Z,10.73
2023-03-20T12:09:48.636Z,10.57
2023-03-20T12:12:51.842Z,13.82
2023-03-20T12:15:40.571Z,13.10
2023-03-20T12:18:15.755Z,11.13
2023-03-20T12:20:58.511Z,15.77
2023-03-20T12:23:41.278Z,9.20
2023-03-20T12:26:39.848Z,9.68
2023-03-20T12:29:30.382Z,8.48
2023-03-20T12:32:21.365Z,10.68
2023-03-20T12:34:58.925Z,8.43
2023-03-20T12:37:26.129Z,10.82
2023-03-20T12:40:01.849Z,8.10
2023-03-20T12:42:57.411Z,9.02
2023-03-20T12:45:39.690Z,13.90
2023-03-20T12:48:26.835Z,8.07
2023-03-20T12:51:19.440Z,7.60
2023-03-20T12:54:00.687Z,9.00
2023-03-20T12:56:50.474Z,14.90
2023-03-20T12:59:41.265Z,9.90
2023-03-20T13:02:24.552Z,11.48
2023-03-20T13:07:43.396Z,9.45
2023-03-20T13:10:10.365Z,7.35
2023-03-20T13:12:39.853Z,8.57
2023-03-20T13:15:15.765Z,10.13
2023-03-20T13:18:08.872Z,5.18
2023-03-20T13:20:48.774Z,6.10
2023-03-20T13:23:52.919Z,6.57
2023-03-20T13:26:33.956Z,6.65
2023-03-20T13:29:27.895Z,8.05
2023-03-20T13:32:21.145Z,6.50
2023-03-20T13:35:05.002Z,7.43
2023-03-20T13:37:40.836Z,4.85
2023-03-20T13:40:34.478Z,4.93
2023-03-20T13:43:24.400Z,4.80
2023-03-20T13:46:01.741Z,3.08
2023-03-20T13:48:36.169Z,6.38
2023-03-20T13:51:11.687Z,5.20
2023-03-20T13:54:12.523Z,7.43
2023-03-20T13:56:46.513Z,5.03
2023-03-20T13:59:30.844Z,3.80
2023-03-20T14:02:09.977Z,4.03
2023-03-20T14:04:37.608Z,5.45
2023-03-20T14:07:28.971Z,5.82
2023-03-20T14:09:56.494Z,10.10
2023-03-20T14:12:27.190Z,3.05
2023-03-20T14:14:57.314Z,3.67
2023-03-20T14:17:27.563Z,4.63
2023-03-20T14:19:55.582Z,3.13
2023-03-20T14:22:28.829Z,3.25
2023-03-20T14:27:36.858Z,5.13
2023-03-20T14:30:31.464Z,7.20
2023-03-20T14:33:31.384Z,2.83
2023-03-20T14:36:20.842Z,4.80
2023-03-20T14:38:59.840Z,3.13
2023-03-20T14:41:59.552Z,8.02
2023-03-20T14:45:05.231Z,9.77
2023-03-20T14:48:02.035Z,5.32
2023-03-20T14:50:46.912Z,5.05
2023-03-20T14:53:24.233Z,7.20
2023-03-20T14:55:56.924Z,6.40
2023-03-20T14:58:55.844Z,6.00
2023-03-20T15:01:22.514Z,8.25
2023-03-20T15:03:59.656Z,4.80
2023-03-20T15:06:28.747Z,7.72
2023-03-20T15:09:08.175Z,6.45
2023-03-20T15:11:35.658Z,7.13
2023-03-20T15:14:06.101Z,4.65
2023-03-20T15:16:35.036Z,4.38
2023-03-20T15:19:04.511Z,6.43
2023-03-20T15:21:41.277Z,3.25
2023-03-20T15:24:08.451Z,5.05
2023-03-20T15:26:36.635Z,2.75
2023-03-20T15:29:07.858Z,4.28
2023-03-20T15:31:37.082Z,4.80
2023-03-20T15:34:13.287Z,4.75
2023-03-20T15:36:40.985Z,9.68
2023-03-20T15:39:15.985Z,5.93
2023-03-20T15:41:47.551Z,5.10
2023-03-20T15:44:33.979Z,6.53
2023-03-20T15:47:03.655Z,6.10
2023-03-20T15:49:33.218Z,7.65
2023-03-20T15:52:24.493Z,7.35
2023-03-20T15:54:51.403Z,10.82
2023-03-20T15:57:36.554Z,11.35
2023-03-20T16:00:06.165Z,5.80
2023-03-20T16:02:34.841Z,9.82
2023-03-20T16:05:01.735Z,6.97
2023-03-20T16:07:31.834Z,10.05
2023-03-20T16:09:59.656Z,6.22
2023-03-20T16:12:27.252Z,12.38
2023-03-20T16:14:55.010Z,8.52
2023-03-20T16:17:24.900Z,8.05
2023-03-20T16:19:52.063Z,9.00
2023-03-20T16:22:32.088Z,8.52
2023-03-20T16:25:01.745Z,6.88
2023-03-20T16:27:34.928Z,7.35
2023-03-20T16:30:09.652Z,11.77
2023-03-20T16:32:45.702Z,8.85
2023-03-20T16:35:22.018Z,7.03
2023-03-20T16:38:00.791Z,12.32
2023-03-20T16:40:37.851Z,7.13
2023-03-20T16:43:28.511Z,5.82
2023-03-20T16:45:57.480Z,46.83
2023-03-20T16:48:32.142Z,14.38
2023-03-20T16:51:02.576Z,8.77
2023-03-20T16:53:36.027Z,10.60
2023-03-20T16:56:05.065Z,10.63
2023-03-20T16:58:33.704Z,9.13
2023-03-20T17:01:06.205Z,8.68
2023-03-20T17:03:40.036Z,6.70
2023-03-20T17:06:11.013Z,10.45
2023-03-20T17:08:41.841Z,10.93
2023-03-20T17:11:15.465Z,7.85
2023-03-20T17:13:42.707Z,8.90
2023-03-20T17:16:20.233Z,6.55
2023-03-20T17:18:53.370Z,6.28
2023-03-20T17:23:46.720Z,5.38
2023-03-20T17:26:13.864Z,4.65
2023-03-20T17:28:42.107Z,8.82
2023-03-20T17:31:16.250Z,6.43
2023-03-20T17:33:43.671Z,10.45
2023-03-20T17:36:19.132Z,8.82
2023-03-20T17:38:46.469Z,6.63
2023-03-20T17:41:18.152Z,5.50
2023-03-20T17:43:45.915Z,12.90
2023-03-20T17:46:25.766Z,4.68
2023-03-20T17:48:57.398Z,6.07
2023-03-20T17:51:24.415Z,4.55
2023-03-20T17:53:56.138Z,8.82
2023-03-20T17:56:23.725Z,7.35
2023-03-20T17:58:50.967Z,4.43
2023-03-20T18:01:18.060Z,7.57
2023-03-20T18:03:44.871Z,6.60
2023-03-20T18:06:29.900Z,6.60
2023-03-20T18:08:58.514Z,6.70
2023-03-20T18:11:26.586Z,8.18
2023-03-20T18:13:53.481Z,6.13
2023-03-20T18:16:23.573Z,5.75
2023-03-20T18:18:51.460Z,7.93
2023-03-20T18:21:18.715Z,7.38
2023-03-20T18:23:45.983Z,5.93
2023-03-20T18:26:21.389Z,8.43
2023-03-20T18:28:49.158Z,7.18
2023-03-20T18:31:18.993Z,5.40
2023-03-20T18:33:51.344Z,9.60
2023-03-20T18:36:20.609Z,5.70
2023-03-20T18:38:47.740Z,5.43
2023-03-20T18:41:15.347Z,5.65
2023-03-20T18:43:43.445Z,7.78
2023-03-20T18:46:16.497Z,7.53
2023-03-20T18:48:44.472Z,8.70
2023-03-20T18:51:11.833Z,11.63
2023-03-20T18:53:38.821Z,6.07
2023-03-20T18:56:07.220Z,10.52
2023-03-20T18:58:36.482Z,8.80
2023-03-20T19:01:03.646Z,7.45
2023-03-20T19:03:30.462Z,6.43
2023-03-20T19:05:58.710Z,6.50
2023-03-20T19:08:25.829Z,7.53
2023-03-20T19:10:52.639Z,6.55
2023-03-20T19:13:21.415Z,6.55
2023-03-20T19:15:48.495Z,7.97
2023-03-20T19:18:18.191Z,5.38
2023-03-20T19:20:48.141Z,5.50
2023-03-20T19:23:17.248Z,7.95
2023-03-20T19:25:46.296Z,8.25
2023-03-20T19:28:40.774Z,8.32
2023-03-20T19:31:09.761Z,11.90
2023-03-20T19:33:38.492Z,6.00
2023-03-20T19:36:06.666Z,9.77
2023-03-20T19:38:34.087Z,10.68
2023-03-20T19:41:02.609Z,6.25
2023-03-20T19:43:29.606Z,8.57
2023-03-20T19:45:58.840Z,7.20
2023-03-20T19:48:46.025Z,8.93
2023-03-20T19:51:22.402Z,10.00
2023-03-20T19:53:50.214Z,10.13
2023-03-20T19:56:18.338Z,6.05
2023-03-20T19:58:45.352Z,13.48
2023-03-20T20:01:24.528Z,9.35
2023-03-20T20:03:57.720Z,9.27
2023-03-20T20:06:30.124Z,6.03
2023-03-20T20:08:58.953Z,5.88
2023-03-20T20:11:25.717Z,7.28
2023-03-20T20:14:09.715Z,6.97
2023-03-20T20:16:40.064Z,8.52
2023-03-20T20:19:07.318Z,7.13
2023-03-20T20:24:21.612Z,6.22
2023-03-20T20:26:56.833Z,7.50
2023-03-20T20:29:33.985Z,6.20
2023-03-20T20:32:01.111Z,8.38
2023-03-20T20:40:04.137Z,8.32
2023-03-20T20:42:31.177Z,6.95
2023-03-20T20:44:57.904Z,8.07
2023-03-20T20:47:24.605Z,6.93
2023-03-20T20:49:51.611Z,7.15
2023-03-20T20:52:18.297Z,9.90
2023-03-20T20:54:45.054Z,8.80
2023-03-20T20:57:12.466Z,8.75
2023-03-20T20:59:40.489Z,7.97
2023-03-20T21:02:13.012Z,8.40
2023-03-20T21:04:41.959Z,8.57
2023-03-20T21:07:12.299Z,7.65
2023-03-20T21:09:40.043Z,7.28
2023-03-20T21:12:08.236Z,8.95
2023-03-20T21:14:35.513Z,8.68
2023-03-20T21:17:02.752Z,11.90
2023-03-20T21:19:31.016Z,8.80
2023-03-20T21:21:57.693Z,8.68
2023-03-20T21:24:33.840Z,10.48
2023-03-20T21:27:03.596Z,8.48
2023-03-20T21:29:30.758Z,8.60
2023-03-20T21:31:57.630Z,9.50
2023-03-20T21:34:42.990Z,8.90
2023-03-20T21:40:16.292Z,9.82
2023-03-20T21:42:43.108Z,9.18
2023-03-20T21:46:13.547Z,9.93
2023-03-20T21:48:42.548Z,11.45
2023-03-20T21:54:38.372Z,11.18
2023-03-20T22:02:09.565Z,10.55
2023-03-20T22:05:28.421Z,10.35
2023-03-20T22:07:58.138Z,14.13
2023-03-20T22:11:18.158Z,11.23
2023-03-20T22:13:54.701Z,11.68
2023-03-20T22:16:41.072Z,12.75
2023-03-20T22:22:00.046Z,12.25
2023-03-20T22:27:42.924Z,11.57
2023-03-20T22:30:30.874Z,10.98
2023-03-20T22:36:15.662Z,14.77
2023-03-20T22:44:34.000Z,11.90
2023-03-20T22:46:44.774Z,11.70
2023-03-20T22:49:12.296Z,12.88
2023-03-20T22:51:52.143Z,12.50
2023-03-20T22:54:24.600Z,14.90
2023-03-20T22:56:51.272Z,13.05
2023-03-20T22:59:22.953Z,12.38
2023-03-20T23:01:49.736Z,12.65
2023-03-20T23:04:16.561Z,18.08
2023-03-20T23:06:43.287Z,15.45
2023-03-20T23:09:15.278Z,11.40
2023-03-20T23:11:42.942Z,12.52
2023-03-20T23:14:28.370Z,13.95
2023-03-20T23:16:55.654Z,16.55
2023-03-20T23:19:22.503Z,14.18
2023-03-20T23:21:49.407Z,13.05
2023-03-20T23:24:16.964Z,12.60
2023-03-20T23:26:43.768Z,14.65
2023-03-20T23:29:10.598Z,12.30
2023-03-20T23:31:37.343Z,13.60
2023-03-20T23:34:04.085Z,12.63
2023-03-20T23:36:36.977Z,14.82
2023-03-20T23:39:09.201Z,11.13
2023-03-20T23:42:04.660Z,12.45
2023-03-20T23:44:22.739Z,11.68
2023-03-20T23:46:49.583Z,13.82
2023-03-20T23:49:16.823Z,11.90
2023-03-20T23:51:44.064Z,16.73
2023-03-20T23:54:11.221Z,10.52
2023-03-20T23:56:38.080Z,10.60
2023-03-20T23:59:14.954Z,13.25
